createdAt,value
2019-02-21T00:00:30.101Z,10.40
2019-02-21T00:01:33.673Z,9.20
2019-02-21T00:02:35.577Z,10.40
2019-02-21T00:03:37.573Z,11.60
2019-02-21T00:04:40.944Z,11.20
2019-02-21T00:05:42.915Z,11.60
2019-02-21T00:06:44.720Z,10.40
2019-02-21T00:07:46.559Z,9.00
2019-02-21T00:08:49.533Z,10.20
2019-02-21T00:09:51.381Z,10.60
2019-02-21T00:10:53.746Z,9.60
2019-02-21T00:11:56.912Z,10.80
2019-02-21T00:12:59.225Z,11.00
2019-02-21T00:14:01.803Z,11.00
2019-02-21T00:15:06.407Z,12.00
2019-02-21T00:16:11.287Z,10.80
2019-02-21T00:17:13.750Z,11.80
2019-02-21T00:18:16.286Z,10.80
2019-02-21T00:19:18.662Z,10.60
2019-02-21T00:20:23.608Z,10.80
2019-02-21T00:21:26.242Z,10.40
2019-02-21T00:22:28.210Z,10.00
2019-02-21T00:23:30.332Z,10.40
2019-02-21T00:24:31.966Z,10.00
2019-02-21T00:25:34.220Z,10.00
2019-02-21T00:26:36.474Z,11.20
2019-02-21T00:27:38.367Z,9.80
2019-02-21T00:28:42.399Z,12.00
2019-02-21T00:29:44.392Z,9.80
2019-02-21T00:30:46.303Z,9.60
2019-02-21T00:31:50.520Z,10.60
2019-02-21T00:32:52.587Z,11.80
2019-02-21T00:33:54.992Z,12.20
2019-02-21T00:34:57.998Z,10.60
2019-02-21T00:36:00.645Z,11.60
2019-02-21T00:37:02.910Z,11.80
2019-02-21T00:38:05.487Z,11.00
2019-02-21T00:39:07.915Z,10.60
2019-02-21T00:40:11.654Z,10.00
2019-02-21T00:41:15.240Z,10.80
2019-02-21T00:42:17.529Z,11.60
2019-02-21T00:43:21.245Z,10.80
2019-02-21T00:44:23.759Z,11.00
2019-02-21T00:45:26.007Z,11.40
2019-02-21T00:46:30.298Z,11.00
2019-02-21T00:47:34.393Z,11.00
2019-02-21T00:48:36.949Z,11.80
2019-02-21T00:49:39.447Z,12.20
2019-02-21T00:50:42.339Z,10.60
2019-02-21T00:51:46.147Z,10.20
2019-02-21T00:52:49.007Z,10.60
2019-02-21T00:53:51.505Z,11.40
2019-02-21T00:54:53.768Z,10.60
2019-02-21T00:55:56.693Z,10.40
2019-02-21T00:56:59.355Z,11.20
2019-02-21T00:58:01.332Z,10.60
2019-02-21T00:59:03.349Z,11.80
2019-02-21T01:00:10.663Z,11.60
2019-02-21T01:01:12.735Z,10.80
2019-02-21T01:02:14.619Z,10.20
2019-02-21T01:03:17.043Z,12.00
2019-02-21T01:04:19.477Z,10.80
2019-02-21T01:05:21.874Z,10.80
2019-02-21T01:06:24.623Z,9.80
2019-02-21T01:07:28.447Z,11.40
2019-02-21T01:08:30.846Z,9.20
2019-02-21T01:09:33.413Z,11.00
2019-02-21T01:10:35.557Z,10.20
2019-02-21T01:11:37.494Z,11.00
2019-02-21T01:12:39.943Z,11.00
2019-02-21T01:13:41.823Z,11.00
2019-02-21T01:14:43.802Z,11.00
2019-02-21T01:15:45.428Z,10.40
2019-02-21T01:16:47.561Z,11.40
2019-02-21T01:17:49.448Z,11.00
2019-02-21T01:18:51.750Z,9.00
2019-02-21T01:19:53.854Z,9.40
2019-02-21T01:20:57.792Z,10.60
2019-02-21T01:21:59.920Z,10.20
2019-02-21T01:23:02.032Z,9.60
2019-02-21T01:24:05.059Z,11.00
2019-02-21T01:25:07.584Z,11.40
2019-02-21T01:26:09.580Z,10.20
2019-02-21T01:27:11.669Z,11.00
2019-02-21T01:28:13.706Z,10.00
2019-02-21T01:29:15.493Z,9.80
2019-02-21T01:30:17.358Z,11.20
2019-02-21T01:31:19.468Z,12.00
2019-02-21T01:32:21.361Z,11.00
2019-02-21T01:33:23.252Z,11.20
2019-02-21T01:34:25.452Z,10.40
2019-02-21T01:35:27.449Z,10.80
2019-02-21T01:36:29.589Z,9.60
2019-02-21T01:37:31.605Z,10.00
2019-02-21T01:38:33.630Z,11.00
2019-02-21T01:39:35.650Z,11.20
2019-02-21T01:40:37.944Z,10.00
2019-02-21T01:41:40.027Z,11.20
2019-02-21T01:42:42.197Z,10.00
2019-02-21T01:43:44.123Z,10.40
2019-02-21T01:44:46.190Z,10.40
2019-02-21T01:45:48.137Z,10.60
2019-02-21T01:46:49.988Z,10.40
2019-02-21T01:47:51.973Z,10.60
2019-02-21T01:48:53.806Z,9.80
2019-02-21T01:49:55.801Z,9.60
2019-02-21T01:50:57.757Z,10.00
2019-02-21T01:51:59.604Z,9.60
2019-02-21T01:53:01.478Z,9.00
2019-02-21T01:54:03.395Z,9.80
2019-02-21T01:55:09.477Z,9.40
2019-02-21T01:56:11.359Z,11.60
2019-02-21T01:57:13.302Z,9.00
2019-02-21T01:58:16.208Z,11.00
2019-02-21T01:59:18.240Z,10.20
2019-02-21T02:00:20.512Z,9.40
2019-02-21T02:01:22.565Z,10.40
2019-02-21T02:02:25.402Z,10.20
2019-02-21T02:03:28.216Z,11.40
2019-02-21T02:04:32.173Z,9.40
2019-02-21T02:05:33.942Z,9.60
2019-02-21T02:06:36.319Z,9.20
2019-02-21T02:07:38.202Z,9.60
2019-02-21T02:08:40.172Z,10.80
2019-02-21T02:09:42.104Z,10.00
2019-02-21T02:10:46.144Z,9.40
2019-02-21T02:11:48.143Z,9.40
2019-02-21T02:12:49.853Z,10.20
2019-02-21T02:13:52.862Z,11.00
2019-02-21T02:14:54.655Z,9.00
2019-02-21T02:15:56.555Z,9.40
2019-02-21T02:16:58.883Z,10.40
2019-02-21T02:18:00.782Z,9.40
2019-02-21T02:19:02.963Z,10.60
2019-02-21T02:20:06.772Z,10.00
2019-02-21T02:21:08.855Z,9.40
2019-02-21T02:22:10.828Z,9.80
2019-02-21T02:23:12.940Z,10.40
2019-02-21T02:24:14.986Z,9.20
2019-02-21T02:25:16.735Z,11.80
2019-02-21T02:26:18.804Z,10.20
2019-02-21T02:27:20.847Z,9.00
2019-02-21T02:28:23.862Z,9.40
2019-02-21T02:29:25.924Z,9.00
2019-02-21T02:30:27.920Z,8.40
2019-02-21T02:31:30.069Z,9.40
2019-02-21T02:32:31.992Z,9.60
2019-02-21T02:33:33.927Z,8.60
2019-02-21T02:34:35.999Z,9.60
2019-02-21T02:35:37.833Z,9.80
2019-02-21T02:36:40.136Z,10.00
2019-02-21T02:37:42.116Z,8.60
2019-02-21T02:38:44.160Z,9.40
2019-02-21T02:39:46.153Z,9.00
2019-02-21T02:40:49.073Z,10.00
2019-02-21T02:41:51.560Z,10.00
2019-02-21T02:42:53.343Z,9.40
2019-02-21T02:43:55.251Z,10.40
2019-02-21T02:44:57.255Z,10.80
2019-02-21T02:45:58.897Z,9.80
2019-02-21T02:47:01.284Z,10.40
2019-02-21T02:48:03.641Z,11.00
2019-02-21T02:49:05.994Z,10.40
2019-02-21T02:50:08.435Z,9.80
2019-02-21T02:51:10.562Z,11.00
2019-02-21T02:52:12.427Z,9.60
2019-02-21T02:53:14.192Z,10.60
2019-02-21T02:54:16.291Z,9.40
2019-02-21T02:55:18.218Z,11.00
2019-02-21T02:56:20.224Z,9.60
2019-02-21T02:57:22.354Z,11.20
2019-02-21T02:58:24.314Z,10.20
2019-02-21T02:59:26.195Z,10.00
2019-02-21T03:00:28.028Z,10.80
2019-02-21T03:01:34.830Z,10.00
2019-02-21T03:02:34.142Z,9.40
2019-02-21T03:03:35.962Z,10.80
2019-02-21T03:04:37.952Z,9.40
2019-02-21T03:05:40.080Z,11.00
2019-02-21T03:06:41.779Z,10.80
2019-02-21T03:07:43.924Z,10.20
2019-02-21T03:08:46.094Z,10.00
2019-02-21T03:09:48.362Z,10.00
2019-02-21T03:10:50.238Z,10.20
2019-02-21T03:11:52.317Z,9.40
2019-02-21T03:12:54.163Z,10.60
2019-02-21T03:13:56.078Z,9.20
2019-02-21T03:14:57.964Z,11.40
2019-02-21T03:15:59.742Z,10.40
2019-02-21T03:17:01.618Z,11.60
2019-02-21T03:18:04.762Z,10.40
2019-02-21T03:19:06.540Z,10.00
2019-02-21T03:20:09.292Z,11.80
2019-02-21T03:21:11.206Z,11.00
2019-02-21T03:22:12.858Z,9.20
2019-02-21T03:23:14.820Z,11.80
2019-02-21T03:24:16.491Z,10.60
2019-02-21T03:25:18.429Z,10.60
2019-02-21T03:26:20.406Z,10.20
2019-02-21T03:27:22.263Z,10.00
2019-02-21T03:28:24.362Z,10.40
2019-02-21T03:29:26.151Z,10.60
2019-02-21T03:30:28.230Z,10.00
2019-02-21T03:31:29.983Z,11.00
2019-02-21T03:32:31.748Z,10.20
2019-02-21T03:33:35.046Z,11.00
2019-02-21T03:34:36.972Z,11.60
2019-02-21T03:35:38.980Z,9.60
2019-02-21T03:36:40.743Z,10.20
2019-02-21T03:37:42.855Z,11.00
2019-02-21T03:38:44.684Z,10.00
2019-02-21T03:39:46.674Z,11.00
2019-02-21T03:40:48.938Z,10.80
2019-02-21T03:41:50.749Z,10.60
2019-02-21T03:42:52.643Z,10.00
2019-02-21T03:43:54.520Z,8.80
2019-02-21T03:44:56.384Z,8.20
2019-02-21T03:45:58.557Z,8.80
2019-02-21T03:47:00.718Z,10.80
2019-02-21T03:48:03.085Z,9.00
2019-02-21T03:49:04.922Z,10.40
2019-02-21T03:50:09.467Z,10.00
2019-02-21T03:51:11.444Z,10.60
2019-02-21T03:52:13.240Z,9.60
2019-02-21T03:53:15.752Z,10.60
2019-02-21T03:54:17.711Z,11.00
2019-02-21T03:55:19.761Z,9.20
2019-02-21T03:56:21.826Z,10.00
2019-02-21T03:57:24.082Z,11.80
2019-02-21T03:58:26.470Z,10.80
2019-02-21T03:59:28.595Z,12.40
2019-02-21T04:00:30.561Z,14.00
2019-02-21T04:01:32.674Z,12.20
2019-02-21T04:02:34.568Z,12.00
2019-02-21T04:03:37.163Z,11.40
2019-02-21T04:04:39.390Z,11.80
2019-02-21T04:05:41.228Z,11.80
2019-02-21T04:06:43.426Z,13.00
2019-02-21T04:07:45.637Z,13.20
2019-02-21T04:08:47.622Z,13.20
2019-02-21T04:09:49.417Z,11.60
2019-02-21T04:10:51.395Z,11.40
2019-02-21T04:11:53.513Z,13.00
2019-02-21T04:12:55.459Z,12.60
2019-02-21T04:13:57.397Z,11.20
2019-02-21T04:14:59.560Z,13.80
2019-02-21T04:16:01.820Z,13.00
2019-02-21T04:17:03.711Z,11.60
2019-02-21T04:18:05.737Z,12.40
2019-02-21T04:19:07.417Z,11.40
2019-02-21T04:20:09.666Z,11.80
2019-02-21T04:21:11.740Z,13.00
2019-02-21T04:22:13.786Z,12.60
2019-02-21T04:23:15.770Z,13.40
2019-02-21T04:24:17.641Z,11.80
2019-02-21T04:25:19.475Z,12.00
2019-02-21T04:26:21.648Z,11.80
2019-02-21T04:27:23.935Z,12.40
2019-02-21T04:28:25.961Z,12.40
2019-02-21T04:29:29.795Z,12.80
2019-02-21T04:30:32.030Z,12.00
2019-02-21T04:31:33.970Z,11.40
2019-02-21T04:32:35.855Z,12.60
2019-02-21T04:33:37.535Z,12.40
2019-02-21T04:34:39.551Z,11.80
2019-02-21T04:35:42.457Z,12.20
2019-02-21T04:36:45.331Z,13.00
2019-02-21T04:37:48.133Z,10.80
2019-02-21T04:38:50.266Z,11.80
2019-02-21T04:39:52.155Z,12.80
2019-02-21T04:40:54.093Z,13.20
2019-02-21T04:41:56.033Z,12.80
2019-02-21T04:42:57.708Z,12.60
2019-02-21T04:43:59.958Z,12.20
2019-02-21T04:45:02.317Z,12.20
2019-02-21T04:46:05.357Z,12.40
2019-02-21T04:47:07.654Z,13.60
2019-02-21T04:48:09.808Z,12.40
2019-02-21T04:49:11.854Z,12.80
2019-02-21T04:50:13.703Z,13.80
2019-02-21T04:51:15.646Z,11.40
2019-02-21T04:52:17.747Z,12.20
2019-02-21T04:53:19.964Z,13.20
2019-02-21T04:54:21.611Z,12.80
2019-02-21T04:55:23.689Z,11.60
2019-02-21T04:56:25.554Z,13.80
2019-02-21T04:57:27.820Z,14.40
2019-02-21T04:58:29.957Z,12.00
2019-02-21T04:59:32.009Z,12.40
2019-02-21T05:00:33.986Z,13.20
2019-02-21T05:01:35.960Z,13.60
2019-02-21T05:02:38.010Z,13.20
2019-02-21T05:03:39.920Z,14.60
2019-02-21T05:04:41.989Z,12.00
2019-02-21T05:05:43.843Z,12.40
2019-02-21T05:06:45.555Z,13.60
2019-02-21T05:07:48.113Z,12.80
2019-02-21T05:08:49.923Z,12.60
2019-02-21T05:09:58.136Z,12.60
2019-02-21T05:10:56.440Z,12.20
2019-02-21T05:11:58.258Z,13.20
2019-02-21T05:12:59.989Z,12.60
2019-02-21T05:14:01.857Z,13.40
2019-02-21T05:15:04.913Z,12.60
2019-02-21T05:16:06.921Z,14.00
2019-02-21T05:17:09.015Z,12.60
2019-02-21T05:18:10.902Z,13.00
2019-02-21T05:19:13.067Z,14.00
2019-02-21T05:20:15.119Z,13.00
2019-02-21T05:21:16.929Z,13.20
2019-02-21T05:22:18.903Z,11.60
2019-02-21T05:23:20.918Z,14.00
2019-02-21T05:24:22.580Z,11.40
2019-02-21T05:25:24.593Z,12.60
2019-02-21T05:26:31.866Z,14.20
2019-02-21T05:27:34.235Z,13.80
2019-02-21T05:28:35.950Z,14.60
2019-02-21T05:29:37.809Z,13.80
2019-02-21T05:30:39.911Z,14.00
2019-02-21T05:31:43.729Z,14.60
2019-02-21T05:32:50.432Z,14.60
2019-02-21T05:34:03.125Z,14.40
2019-02-21T05:35:19.834Z,13.40
2019-02-21T05:36:26.765Z,12.80
2019-02-21T05:37:30.446Z,12.80
2019-02-21T05:38:36.865Z,13.80
2019-02-21T05:39:40.569Z,13.60
2019-02-21T05:40:44.497Z,12.40
2019-02-21T05:41:48.338Z,13.40
2019-02-21T05:42:52.137Z,13.20
2019-02-21T05:44:04.780Z,15.00
2019-02-21T05:45:10.901Z,14.80
2019-02-21T05:46:20.702Z,13.80
2019-02-21T05:47:24.370Z,13.60
2019-02-21T05:48:28.034Z,14.00
2019-02-21T05:49:34.813Z,13.20
2019-02-21T05:50:47.635Z,15.20
2019-02-21T05:51:51.329Z,14.00
2019-02-21T05:52:57.670Z,13.60
2019-02-21T05:54:04.197Z,12.00
2019-02-21T05:55:08.220Z,13.40
2019-02-21T05:56:30.299Z,13.60
2019-02-21T05:57:34.424Z,13.00
2019-02-21T05:58:38.685Z,12.80
2019-02-21T05:59:48.245Z,13.80
2019-02-21T06:00:57.934Z,14.00
2019-02-21T06:02:01.903Z,13.00
2019-02-21T06:03:08.951Z,16.20
2019-02-21T06:04:12.773Z,13.40
2019-02-21T06:05:28.717Z,14.60
2019-02-21T06:06:32.665Z,15.00
2019-02-21T06:07:36.489Z,14.00
2019-02-21T06:08:56.078Z,14.60
2019-02-21T06:10:11.699Z,14.20
2019-02-21T06:11:18.121Z,14.80
2019-02-21T06:12:33.487Z,13.20
2019-02-21T06:13:44.705Z,13.40
2019-02-21T06:14:51.728Z,14.20
2019-02-21T06:15:56.513Z,13.20
2019-02-21T06:17:06.801Z,14.20
2019-02-21T06:18:25.892Z,14.20
2019-02-21T06:19:36.609Z,14.60
2019-02-21T06:20:43.463Z,15.40
2019-02-21T06:21:53.127Z,15.40
2019-02-21T06:23:03.827Z,14.60
2019-02-21T06:24:25.479Z,13.80
2019-02-21T06:25:35.259Z,14.40
2019-02-21T06:26:39.609Z,13.80
2019-02-21T06:27:49.055Z,14.80
2019-02-21T06:28:55.673Z,12.20
2019-02-21T06:29:59.364Z,14.80
2019-02-21T06:31:03.079Z,13.80
2019-02-21T06:32:13.866Z,15.00
2019-02-21T06:33:08.712Z,13.20
2019-02-21T06:34:10.871Z,12.00
2019-02-21T06:35:12.809Z,16.00
2019-02-21T06:36:14.754Z,14.20
2019-02-21T06:37:17.066Z,14.60
2019-02-21T06:38:19.150Z,14.20
2019-02-21T06:39:21.097Z,13.40
2019-02-21T06:40:22.860Z,14.80
2019-02-21T06:41:24.962Z,13.40
2019-02-21T06:42:26.710Z,14.40
2019-02-21T06:43:28.715Z,14.20
2019-02-21T06:44:32.702Z,14.60
2019-02-21T06:45:35.012Z,14.20
2019-02-21T06:46:36.910Z,14.00
2019-02-21T06:47:38.910Z,12.40
2019-02-21T06:48:40.575Z,11.00
2019-02-21T06:49:42.725Z,13.80
2019-02-21T06:50:44.761Z,12.40
2019-02-21T06:51:46.640Z,12.80
2019-02-21T06:52:49.818Z,13.60
2019-02-21T06:53:53.166Z,14.00
2019-02-21T06:54:55.514Z,13.60
2019-02-21T06:55:58.161Z,13.20
2019-02-21T06:56:59.945Z,13.40
2019-02-21T06:58:01.808Z,14.60
2019-02-21T06:59:03.991Z,14.80
2019-02-21T07:00:05.985Z,14.00
2019-02-21T07:01:08.173Z,13.00
2019-02-21T07:02:10.183Z,12.80
2019-02-21T07:03:15.800Z,13.40
2019-02-21T07:04:15.659Z,13.40
2019-02-21T07:05:17.577Z,15.00
2019-02-21T07:06:19.307Z,14.80
2019-02-21T07:07:21.184Z,13.20
2019-02-21T07:08:25.093Z,13.00
2019-02-21T07:09:26.877Z,12.60
2019-02-21T07:10:28.851Z,13.60
2019-02-21T07:11:31.427Z,13.60
2019-02-21T07:12:33.408Z,14.00
2019-02-21T07:13:35.805Z,13.40
2019-02-21T07:14:38.473Z,11.60
2019-02-21T07:15:40.975Z,12.20
2019-02-21T07:16:43.247Z,13.00
2019-02-21T07:17:49.273Z,13.40
2019-02-21T07:18:51.573Z,14.00
2019-02-21T07:19:53.810Z,11.40
2019-02-21T07:20:56.856Z,12.00
2019-02-21T07:21:59.141Z,12.60
2019-02-21T07:23:01.084Z,13.00
2019-02-21T07:24:03.112Z,10.00
2019-02-21T07:25:10.227Z,13.20
2019-02-21T07:26:12.165Z,12.60
2019-02-21T07:27:14.242Z,14.40
2019-02-21T07:28:16.390Z,13.20
2019-02-21T07:29:18.295Z,13.00
2019-02-21T07:30:23.023Z,13.60
2019-02-21T07:31:28.638Z,11.80
2019-02-21T07:32:28.035Z,12.40
2019-02-21T07:33:30.022Z,13.20
2019-02-21T07:34:31.962Z,14.60
2019-02-21T07:35:34.064Z,13.20
2019-02-21T07:36:35.978Z,11.40
2019-02-21T07:37:37.928Z,12.40
2019-02-21T07:38:40.014Z,13.00
2019-02-21T07:39:42.095Z,10.80
2019-02-21T07:40:43.999Z,12.80
2019-02-21T07:41:46.272Z,12.40
2019-02-21T07:42:48.381Z,12.80
2019-02-21T07:43:50.512Z,12.60
2019-02-21T07:44:52.886Z,13.80
2019-02-21T07:45:54.857Z,12.00
2019-02-21T07:46:56.839Z,13.60
2019-02-21T07:47:58.949Z,12.40
2019-02-21T07:49:00.645Z,14.80
2019-02-21T07:50:06.571Z,13.00
2019-02-21T07:51:08.419Z,13.80
2019-02-21T07:52:10.439Z,14.60
2019-02-21T07:53:13.578Z,11.20
2019-02-21T07:54:15.451Z,15.00
2019-02-21T07:55:17.523Z,11.20
2019-02-21T07:56:19.321Z,13.80
2019-02-21T07:57:22.427Z,13.60
2019-02-21T07:58:24.379Z,14.00
2019-02-21T07:59:26.571Z,14.00
2019-02-21T08:00:28.773Z,13.40
2019-02-21T08:01:30.705Z,15.00
2019-02-21T08:02:33.049Z,16.00
2019-02-21T08:03:44.466Z,13.80
2019-02-21T08:04:41.456Z,14.40
2019-02-21T08:05:43.470Z,15.20
2019-02-21T08:06:45.564Z,13.40
2019-02-21T08:07:49.786Z,14.60
2019-02-21T08:08:51.058Z,16.00
2019-02-21T08:09:53.301Z,14.40
2019-02-21T08:10:55.099Z,15.20
2019-02-21T08:11:57.199Z,15.00
2019-02-21T08:12:59.127Z,15.80
2019-02-21T08:14:02.446Z,15.40
2019-02-21T08:15:11.684Z,14.60
2019-02-21T08:16:12.800Z,15.80
2019-02-21T08:17:16.293Z,15.40
2019-02-21T08:18:20.691Z,16.00
2019-02-21T08:19:22.609Z,16.80
2019-02-21T08:20:33.529Z,13.60
2019-02-21T08:21:28.139Z,15.20
2019-02-21T08:22:29.980Z,15.00
2019-02-21T08:23:32.548Z,14.20
2019-02-21T08:24:34.494Z,16.40
2019-02-21T08:25:36.494Z,16.80
2019-02-21T08:26:38.490Z,16.20
2019-02-21T08:27:42.438Z,15.60
2019-02-21T08:28:44.232Z,16.00
2019-02-21T08:29:47.231Z,16.00
2019-02-21T08:30:49.241Z,16.20
2019-02-21T08:31:50.935Z,15.40
2019-02-21T08:33:11.742Z,16.60
2019-02-21T08:34:18.272Z,15.60
2019-02-21T08:35:20.610Z,17.00
2019-02-21T08:36:22.593Z,18.00
2019-02-21T08:37:24.573Z,16.00
2019-02-21T08:38:26.531Z,16.20
2019-02-21T08:39:28.252Z,14.20
2019-02-21T08:40:30.312Z,18.80
2019-02-21T08:41:32.360Z,16.00
2019-02-21T08:42:34.527Z,18.20
2019-02-21T08:43:37.343Z,17.40
2019-02-21T08:44:39.479Z,19.00
2019-02-21T08:45:41.371Z,18.20
2019-02-21T08:46:43.333Z,16.40
2019-02-21T08:47:45.775Z,17.00
2019-02-21T08:48:48.029Z,18.00
2019-02-21T08:49:49.954Z,16.80
2019-02-21T08:50:52.176Z,16.60
2019-02-21T08:51:55.145Z,18.00
2019-02-21T08:52:57.383Z,19.00
2019-02-21T08:53:59.534Z,17.60
2019-02-21T08:55:01.386Z,16.60
2019-02-21T08:56:03.855Z,16.40
2019-02-21T08:57:06.165Z,17.40
2019-02-21T08:58:08.062Z,17.20
2019-02-21T08:59:10.199Z,17.60
2019-02-21T09:00:14.211Z,18.00
2019-02-21T09:01:16.361Z,16.80
2019-02-21T09:02:18.247Z,18.00
2019-02-21T09:03:20.502Z,17.60
2019-02-21T09:04:27.412Z,17.40
2019-02-21T09:05:26.448Z,18.20
2019-02-21T09:06:28.494Z,17.00
2019-02-21T09:07:30.742Z,17.20
2019-02-21T09:08:36.793Z,17.00
2019-02-21T09:09:36.998Z,19.60
2019-02-21T09:10:39.060Z,17.00
2019-02-21T09:11:40.868Z,16.60
2019-02-21T09:12:47.771Z,17.00
2019-02-21T09:13:47.198Z,16.80
2019-02-21T09:14:49.546Z,17.00
2019-02-21T09:15:51.276Z,17.00
2019-02-21T09:16:53.377Z,16.80
2019-02-21T09:17:55.177Z,17.00
2019-02-21T09:18:58.598Z,17.60
2019-02-21T09:20:00.578Z,17.80
2019-02-21T09:21:02.821Z,17.40
2019-02-21T09:22:04.713Z,17.20
2019-02-21T09:23:06.688Z,17.00
2019-02-21T09:24:08.586Z,17.40
2019-02-21T09:25:12.376Z,17.80
2019-02-21T09:26:14.342Z,16.80
2019-02-21T09:27:16.271Z,15.80
2019-02-21T09:28:18.212Z,15.40
2019-02-21T09:29:20.134Z,16.60
2019-02-21T09:30:21.955Z,15.40
2019-02-21T09:31:23.757Z,18.40
2019-02-21T09:32:25.873Z,15.80
2019-02-21T09:33:28.035Z,16.00
2019-02-21T09:34:30.153Z,16.60
2019-02-21T09:35:32.159Z,15.80
2019-02-21T09:36:34.220Z,14.60
2019-02-21T09:37:36.472Z,16.60
2019-02-21T09:38:39.194Z,16.60
2019-02-21T09:39:41.058Z,15.40
2019-02-21T09:40:43.091Z,16.20
2019-02-21T09:41:45.221Z,16.20
2019-02-21T09:42:47.788Z,15.80
2019-02-21T09:43:51.133Z,16.20
2019-02-21T09:44:53.572Z,16.80
2019-02-21T09:45:55.591Z,16.60
2019-02-21T09:46:57.417Z,15.00
2019-02-21T09:47:59.730Z,18.40
2019-02-21T09:49:02.991Z,14.60
2019-02-21T09:50:07.686Z,15.80
2019-02-21T09:51:09.538Z,15.60
2019-02-21T09:52:11.474Z,14.80
2019-02-21T09:53:13.428Z,15.60
2019-02-21T09:54:15.659Z,16.80
2019-02-21T09:55:17.444Z,15.40
2019-02-21T09:56:29.954Z,16.20
2019-02-21T09:57:23.492Z,14.40
2019-02-21T09:58:25.196Z,15.40
2019-02-21T09:59:28.781Z,15.00
2019-02-21T10:00:31.480Z,15.60
2019-02-21T10:01:35.368Z,16.00
2019-02-21T10:02:37.458Z,14.80
2019-02-21T10:03:39.686Z,14.80
2019-02-21T10:04:41.679Z,15.00
2019-02-21T10:05:43.670Z,15.20
2019-02-21T10:06:45.747Z,14.20
2019-02-21T10:07:47.830Z,13.60
2019-02-21T10:08:49.780Z,14.60
2019-02-21T10:09:51.638Z,15.00
2019-02-21T10:10:53.618Z,15.20
2019-02-21T10:11:55.809Z,13.40
2019-02-21T10:12:57.673Z,15.20
2019-02-21T10:13:59.552Z,15.80
2019-02-21T10:15:02.090Z,14.20
2019-02-21T10:16:04.895Z,14.60
2019-02-21T10:17:07.913Z,14.80
2019-02-21T10:18:09.867Z,14.40
2019-02-21T10:19:11.577Z,14.20
2019-02-21T10:20:19.127Z,14.20
2019-02-21T10:21:22.295Z,13.00
2019-02-21T10:22:26.062Z,14.20
2019-02-21T10:23:28.166Z,16.60
2019-02-21T10:24:30.157Z,14.40
2019-02-21T10:25:32.070Z,13.00
2019-02-21T10:26:34.297Z,14.60
2019-02-21T10:27:36.207Z,14.00
2019-02-21T10:28:38.095Z,13.80
2019-02-21T10:29:40.329Z,14.60
2019-02-21T10:30:42.369Z,11.60
2019-02-21T10:31:44.237Z,12.20
2019-02-21T10:32:47.369Z,12.40
2019-02-21T10:33:49.365Z,13.20
2019-02-21T10:34:53.104Z,12.40
2019-02-21T10:35:55.392Z,11.60
2019-02-21T10:36:57.281Z,12.20
2019-02-21T10:37:59.333Z,12.80
2019-02-21T10:39:01.204Z,12.20
2019-02-21T10:40:09.980Z,12.60
2019-02-21T10:41:13.573Z,12.40
2019-02-21T10:42:15.935Z,12.80
2019-02-21T10:43:17.850Z,12.20
2019-02-21T10:44:20.240Z,12.60
2019-02-21T10:45:22.284Z,11.80
2019-02-21T10:46:24.370Z,12.40
2019-02-21T10:47:26.317Z,11.60
2019-02-21T10:48:28.272Z,11.20
2019-02-21T10:49:30.125Z,11.20
2019-02-21T10:50:32.182Z,11.00
2019-02-21T10:51:34.176Z,11.00
2019-02-21T10:52:36.408Z,12.20
2019-02-21T10:53:38.514Z,11.20
2019-02-21T10:54:40.361Z,9.60
2019-02-21T10:55:42.463Z,12.40
2019-02-21T10:56:44.689Z,12.20
2019-02-21T10:57:48.078Z,12.00
2019-02-21T10:58:50.128Z,12.60
2019-02-21T10:59:52.405Z,11.40
2019-02-21T11:00:54.680Z,10.00
2019-02-21T11:01:56.611Z,10.80
2019-02-21T11:03:00.179Z,11.40
2019-02-21T11:04:02.126Z,11.00
2019-02-21T11:05:07.441Z,10.40
2019-02-21T11:06:09.275Z,12.60
2019-02-21T11:07:11.259Z,12.80
2019-02-21T11:08:14.875Z,11.80
2019-02-21T11:09:20.230Z,11.20
2019-02-21T11:10:27.781Z,10.80
2019-02-21T11:11:30.008Z,11.00
2019-02-21T11:12:33.787Z,10.80
2019-02-21T11:13:35.662Z,11.20
2019-02-21T11:14:47.240Z,12.40
2019-02-21T11:15:43.251Z,13.00
2019-02-21T11:16:46.224Z,11.00
2019-02-21T11:17:48.647Z,11.20
2019-02-21T11:18:50.615Z,9.80
2019-02-21T11:19:52.663Z,12.00
2019-02-21T11:20:54.655Z,10.00
2019-02-21T11:21:56.393Z,12.40
2019-02-21T11:22:58.334Z,11.60
2019-02-21T11:24:00.517Z,10.00
2019-02-21T11:25:06.105Z,12.00
2019-02-21T11:26:07.907Z,11.40
2019-02-21T11:27:09.816Z,11.20
2019-02-21T11:28:11.676Z,10.60
2019-02-21T11:29:13.921Z,10.40
2019-02-21T11:30:18.896Z,11.40
2019-02-21T11:31:20.929Z,11.60
2019-02-21T11:32:22.861Z,10.00
2019-02-21T11:33:25.056Z,11.00
2019-02-21T11:34:26.869Z,11.60
2019-02-21T11:35:28.708Z,12.00
2019-02-21T11:36:30.695Z,11.80
2019-02-21T11:37:42.719Z,9.40
2019-02-21T11:38:36.460Z,11.00
2019-02-21T11:39:38.146Z,9.20
2019-02-21T11:40:40.322Z,9.40
2019-02-21T11:41:42.583Z,10.00
2019-02-21T11:42:45.298Z,10.40
2019-02-21T11:43:47.729Z,10.60
2019-02-21T11:44:49.556Z,9.40
2019-02-21T11:45:56.384Z,10.80
2019-02-21T11:46:55.560Z,9.40
2019-02-21T11:47:57.325Z,10.20
2019-02-21T11:48:58.995Z,10.00
2019-02-21T11:50:01.007Z,10.60
2019-02-21T11:51:03.179Z,9.40
2019-02-21T11:52:10.092Z,11.40
2019-02-21T11:53:10.042Z,9.60
2019-02-21T11:54:14.525Z,10.00
2019-02-21T11:55:21.451Z,10.00
2019-02-21T11:56:23.436Z,9.40
2019-02-21T11:57:26.754Z,9.20
2019-02-21T11:58:28.952Z,9.60
2019-02-21T11:59:30.910Z,9.60
2019-02-21T12:00:33.174Z,8.60
2019-02-21T12:01:35.268Z,10.80
2019-02-21T12:02:39.040Z,10.80
2019-02-21T12:03:42.143Z,9.40
2019-02-21T12:04:45.061Z,10.40
2019-02-21T12:05:47.073Z,10.40
2019-02-21T12:06:49.330Z,9.00
2019-02-21T12:07:51.485Z,8.60
2019-02-21T12:08:53.463Z,11.60
2019-02-21T12:09:55.167Z,10.00
2019-02-21T12:10:57.253Z,12.00
2019-02-21T12:11:59.197Z,11.40
2019-02-21T12:13:01.408Z,9.00
2019-02-21T12:14:03.567Z,9.40
2019-02-21T12:15:09.791Z,10.60
2019-02-21T12:16:11.570Z,8.40
2019-02-21T12:17:13.419Z,10.00
2019-02-21T12:18:15.874Z,11.20
2019-02-21T12:19:17.599Z,8.80
2019-02-21T12:20:19.799Z,9.20
2019-02-21T12:21:21.906Z,11.00
2019-02-21T12:22:23.700Z,9.20
2019-02-21T12:23:26.053Z,9.20
2019-02-21T12:24:27.868Z,9.00
2019-02-21T12:25:29.817Z,9.20
2019-02-21T12:26:31.918Z,8.40
2019-02-21T12:27:33.767Z,9.20
2019-02-21T12:28:35.621Z,9.20
2019-02-21T12:29:37.696Z,9.60
2019-02-21T12:30:39.871Z,10.00
2019-02-21T12:31:41.857Z,10.00
2019-02-21T12:32:44.307Z,8.60
2019-02-21T12:33:46.180Z,8.40
2019-02-21T12:34:50.224Z,8.40
2019-02-21T12:35:52.027Z,10.20
2019-02-21T12:36:54.165Z,9.00
2019-02-21T12:37:56.058Z,8.00
2019-02-21T12:38:58.343Z,9.80
2019-02-21T12:40:00.229Z,10.00
2019-02-21T12:41:02.528Z,9.00
2019-02-21T12:42:04.715Z,7.80
2019-02-21T12:43:06.764Z,9.00
2019-02-21T12:44:08.723Z,9.40
2019-02-21T12:45:14.244Z,10.60
2019-02-21T12:46:16.210Z,10.40
2019-02-21T12:47:18.182Z,10.40
2019-02-21T12:48:21.238Z,8.60
2019-02-21T12:49:23.306Z,7.60
2019-02-21T12:50:25.311Z,9.00
2019-02-21T12:51:26.983Z,9.00
2019-02-21T12:52:29.001Z,9.00
2019-02-21T12:53:31.076Z,10.00
2019-02-21T12:54:34.706Z,8.80
2019-02-21T12:55:36.592Z,9.20
2019-02-21T12:56:38.725Z,10.80
2019-02-21T12:57:42.087Z,9.40
2019-02-21T12:58:45.274Z,9.80
2019-02-21T12:59:47.587Z,11.00
2019-02-21T13:00:49.561Z,10.00
2019-02-21T13:01:51.370Z,10.20
2019-02-21T13:02:53.387Z,9.80
2019-02-21T13:03:55.295Z,8.60
2019-02-21T13:04:57.248Z,11.60
2019-02-21T13:05:59.119Z,11.60
2019-02-21T13:07:01.017Z,11.60
2019-02-21T13:08:03.069Z,11.80
2019-02-21T13:09:06.057Z,11.00
2019-02-21T13:10:15.445Z,11.20
2019-02-21T13:11:17.421Z,9.80
2019-02-21T13:12:19.194Z,12.00
2019-02-21T13:13:21.368Z,10.00
2019-02-21T13:14:23.449Z,12.00
2019-02-21T13:15:25.477Z,10.60
2019-02-21T13:16:27.625Z,10.20
2019-02-21T13:17:29.845Z,11.20
2019-02-21T13:18:31.736Z,12.40
2019-02-21T13:19:33.601Z,14.00
2019-02-21T13:20:35.474Z,11.60
2019-02-21T13:21:37.286Z,11.40
2019-02-21T13:22:39.355Z,11.60
2019-02-21T13:23:43.039Z,12.00
2019-02-21T13:24:46.690Z,11.80
2019-02-21T13:25:48.686Z,12.40
2019-02-21T13:26:50.719Z,11.40
2019-02-21T13:27:52.988Z,11.60
2019-02-21T13:28:54.855Z,10.20
2019-02-21T13:29:56.859Z,11.20
2019-02-21T13:30:59.827Z,11.00
2019-02-21T13:32:02.958Z,10.00
2019-02-21T13:33:05.316Z,11.40